Agadir Al Massira, Morocco
Current Conditions -  °F | °C
As of 5:30 AM on Monday 22 Dec 2014 (Local Time) from GMAD Reporting Station
Clear Clear  
Wind Chill: 54°   Ceiling: Unl
Heat Index: 54°   Visibility: 6mi
Dew Point: 45°   Wind: 9mph
Humidity: 72%   Direction: 70°ENE
Pressure: 30.24"   Gusts: NA
Location:  30.33°N, 9.4°W
Report Text: GMAD 220430Z 07008KT CAVOK 12/07 Q1024 NOSIG
Loading
Personal Weather Stations






























Interactive Weather Map New forecast layout! Learn more

10-Day Weather Forecast

Advertisements
Track Severe Weather on mobile